createdAt,value
2017-10-15T00:00:10.800Z,75010.47
2017-10-15T00:01:10.833Z,75011.10
2017-10-15T00:02:10.855Z,75011.53
2017-10-15T00:03:10.883Z,75010.36
2017-10-15T00:04:10.911Z,75008.23
2017-10-15T00:05:10.937Z,75008.94
2017-10-15T00:06:10.965Z,75009.07
2017-10-15T00:07:10.993Z,75011.88
2017-10-15T00:08:11.021Z,75003.58
2017-10-15T00:09:11.047Z,75008.21
2017-10-15T00:10:11.075Z,75009.03
2017-10-15T00:11:11.102Z,75006.95
2017-10-15T00:12:11.134Z,75004.41
2017-10-15T00:13:11.157Z,75002.14
2017-10-15T00:14:11.183Z,75005.66
2017-10-15T00:15:11.212Z,75005.86
2017-10-15T00:16:11.239Z,74998.66
2017-10-15T00:17:11.266Z,75000.74
2017-10-15T00:18:11.294Z,74998.88
2017-10-15T00:19:11.322Z,75001.48
2017-10-15T00:20:11.349Z,75000.17
2017-10-15T00:21:11.379Z,75001.97
2017-10-15T00:22:11.403Z,75000.84
2017-10-15T00:23:11.431Z,74997.51
2017-10-15T00:24:11.460Z,74996.88
2017-10-15T00:25:11.486Z,74999.27
2017-10-15T00:26:11.513Z,74996.35
2017-10-15T00:27:11.541Z,74994.02
2017-10-15T00:28:11.569Z,75001.21
2017-10-15T00:29:11.595Z,74997.08
2017-10-15T00:30:11.623Z,75001.38
2017-10-15T00:31:11.650Z,74997.66
2017-10-15T00:32:11.679Z,74999.44
2017-10-15T00:33:11.706Z,74996.10
2017-10-15T00:34:11.733Z,74997.88
2017-10-15T00:35:11.760Z,74998.50
2017-10-15T00:36:11.789Z,74998.20
2017-10-15T00:37:11.816Z,74996.41
2017-10-15T00:38:11.843Z,74996.16
2017-10-15T00:39:11.870Z,74996.26
2017-10-15T00:40:11.898Z,74996.53
2017-10-15T00:41:11.925Z,74996.09
2017-10-15T00:42:11.954Z,75003.02
2017-10-15T00:43:11.981Z,75000.45
2017-10-15T00:44:12.008Z,74999.29
2017-10-15T00:45:12.036Z,75000.89
2017-10-15T00:46:12.063Z,75000.69
2017-10-15T00:47:12.091Z,75003.21
2017-10-15T00:48:12.117Z,75000.17
2017-10-15T00:49:12.144Z,74999.23
2017-10-15T00:50:12.172Z,74999.00
2017-10-15T00:51:12.200Z,74999.33
2017-10-15T00:52:12.227Z,74996.89
2017-10-15T00:53:12.255Z,75001.38
2017-10-15T00:54:12.282Z,75000.08
2017-10-15T00:55:12.310Z,74995.73
2017-10-15T00:56:12.338Z,74997.11
2017-10-15T00:57:12.365Z,74998.62
2017-10-15T00:58:12.393Z,74994.24
2017-10-15T00:59:12.420Z,74991.61
2017-10-15T01:00:12.447Z,74996.73
2017-10-15T01:01:12.475Z,74992.59
2017-10-15T01:02:12.502Z,74992.47
2017-10-15T01:03:12.529Z,74991.55
2017-10-15T01:04:12.558Z,74992.48
2017-10-15T01:05:12.593Z,74992.26
2017-10-15T01:06:12.612Z,74992.14
2017-10-15T01:07:12.649Z,74986.91
2017-10-15T01:08:12.667Z,74987.80
2017-10-15T01:09:12.696Z,74988.41
2017-10-15T01:10:12.721Z,74988.85
2017-10-15T01:11:12.749Z,74987.75
2017-10-15T01:12:12.777Z,74988.08
2017-10-15T01:13:12.803Z,74987.35
2017-10-15T01:14:12.832Z,74987.89
2017-10-15T01:15:12.859Z,74984.95
2017-10-15T01:16:12.891Z,74986.88
2017-10-15T01:17:12.912Z,74985.85
2017-10-15T01:18:12.941Z,74986.70
2017-10-15T01:19:12.969Z,74983.35
2017-10-15T01:20:12.996Z,74984.45
2017-10-15T01:21:13.022Z,74984.28
2017-10-15T01:22:13.050Z,74987.34
2017-10-15T01:23:13.082Z,74986.30
2017-10-15T01:24:13.106Z,74984.39
2017-10-15T01:25:13.132Z,74984.17
2017-10-15T01:26:13.160Z,74983.38
2017-10-15T01:27:13.187Z,74984.52
2017-10-15T01:28:13.214Z,74977.73
2017-10-15T01:29:13.241Z,74981.50
2017-10-15T01:30:13.268Z,74981.88
2017-10-15T01:31:13.296Z,74979.95
2017-10-15T01:32:13.324Z,74981.01
2017-10-15T01:33:13.351Z,74982.04
2017-10-15T01:34:13.378Z,74979.78
2017-10-15T01:35:13.408Z,74977.76
2017-10-15T01:36:13.434Z,74979.98
2017-10-15T01:37:13.460Z,74977.98
2017-10-15T01:38:13.488Z,74978.85
2017-10-15T01:39:13.514Z,74980.27
2017-10-15T01:40:13.542Z,74976.22
2017-10-15T01:41:13.569Z,74978.11
2017-10-15T01:42:13.597Z,74978.44
2017-10-15T01:43:13.625Z,74975.74
2017-10-15T01:44:13.651Z,74974.92
2017-10-15T01:45:13.679Z,74973.55
2017-10-15T01:46:13.706Z,74975.26
2017-10-15T01:47:13.734Z,74973.50
2017-10-15T01:48:13.761Z,74970.31
2017-10-15T01:49:13.788Z,74971.46
2017-10-15T01:50:13.816Z,74971.42
2017-10-15T01:51:13.843Z,74970.80
2017-10-15T01:52:13.871Z,74971.37
2017-10-15T01:53:13.897Z,74972.92
2017-10-15T01:54:13.925Z,74970.28
2017-10-15T01:55:13.952Z,74970.88
2017-10-15T01:56:13.980Z,74968.18
2017-10-15T01:57:14.006Z,74968.18
2017-10-15T01:58:14.034Z,74971.57
2017-10-15T01:59:14.063Z,74968.45
2017-10-15T02:00:14.090Z,74969.24
2017-10-15T02:01:14.116Z,74971.09
2017-10-15T02:02:14.162Z,74971.21
2017-10-15T02:03:14.171Z,74968.20
2017-10-15T02:04:14.199Z,74966.09
2017-10-15T02:05:14.226Z,74968.13
2017-10-15T02:06:14.253Z,74967.58
2017-10-15T02:07:14.281Z,74964.72
2017-10-15T02:08:14.308Z,74965.28
2017-10-15T02:09:14.334Z,74966.05
2017-10-15T02:10:14.362Z,74963.81
2017-10-15T02:11:14.390Z,74965.38
2017-10-15T02:12:14.418Z,74963.34
2017-10-15T02:13:14.444Z,74961.30
2017-10-15T02:14:14.472Z,74964.78
2017-10-15T02:15:14.499Z,74963.47
2017-10-15T02:16:14.527Z,74964.48
2017-10-15T02:17:14.555Z,74965.80
2017-10-15T02:18:14.584Z,74964.05
2017-10-15T02:19:14.609Z,74965.38
2017-10-15T02:20:14.637Z,74964.38
2017-10-15T02:21:14.663Z,74964.27
2017-10-15T02:22:14.691Z,74963.45
2017-10-15T02:23:14.719Z,74966.54
2017-10-15T02:24:14.746Z,74965.98
2017-10-15T02:25:14.773Z,74962.81
2017-10-15T02:26:14.800Z,74965.84
2017-10-15T02:27:14.829Z,74962.98
2017-10-15T02:28:14.856Z,74963.96
2017-10-15T02:29:14.883Z,74966.19
2017-10-15T02:30:14.911Z,74966.16
2017-10-15T02:31:14.938Z,74962.95
2017-10-15T02:32:14.965Z,74965.73
2017-10-15T02:33:14.992Z,74966.06
2017-10-15T02:34:15.020Z,74965.31
2017-10-15T02:35:15.047Z,74969.34
2017-10-15T02:36:15.075Z,74967.85
2017-10-15T02:37:15.101Z,74967.91
2017-10-15T02:38:15.129Z,74964.95
2017-10-15T02:39:15.158Z,74967.17
2017-10-15T02:40:15.185Z,74964.70
2017-10-15T02:41:15.210Z,74966.17
2017-10-15T02:42:15.238Z,74966.42
2017-10-15T02:43:15.266Z,74963.95
2017-10-15T02:44:15.294Z,74960.43
2017-10-15T02:45:15.319Z,74961.14
2017-10-15T02:46:15.356Z,74962.55
2017-10-15T02:47:15.379Z,74962.03
2017-10-15T02:48:15.403Z,74961.12
2017-10-15T02:49:15.430Z,74966.31
2017-10-15T02:50:15.457Z,74961.05
2017-10-15T02:51:15.485Z,74963.66
2017-10-15T02:52:15.519Z,74961.74
2017-10-15T02:53:15.538Z,74958.92
2017-10-15T02:54:15.566Z,74962.56
2017-10-15T02:55:15.593Z,74962.17
2017-10-15T02:56:15.621Z,74960.77
2017-10-15T02:57:15.648Z,74962.31
2017-10-15T02:58:15.674Z,74960.50
2017-10-15T02:59:15.703Z,74963.74
2017-10-15T03:00:15.730Z,74961.30
2017-10-15T03:01:15.757Z,74962.45
2017-10-15T03:02:15.784Z,74962.78
2017-10-15T03:03:15.813Z,74964.38
2017-10-15T03:04:15.840Z,74960.24
2017-10-15T03:05:15.866Z,74962.08
2017-10-15T03:06:15.894Z,74962.43
2017-10-15T03:07:15.921Z,74963.30
2017-10-15T03:08:15.947Z,74963.18
2017-10-15T03:09:15.975Z,74961.95
2017-10-15T03:10:16.003Z,74962.77
2017-10-15T03:11:16.030Z,74961.42
2017-10-15T03:12:16.058Z,74961.42
2017-10-15T03:13:16.084Z,74962.53
2017-10-15T03:14:16.112Z,74964.88
2017-10-15T03:15:16.141Z,74962.94
2017-10-15T03:16:16.168Z,74963.23
2017-10-15T03:17:16.194Z,74962.84
2017-10-15T03:18:16.221Z,74960.87
2017-10-15T03:19:16.249Z,74959.69
2017-10-15T03:20:16.277Z,74963.99
2017-10-15T03:21:16.302Z,74963.20
2017-10-15T03:22:16.331Z,74962.58
2017-10-15T03:23:16.358Z,74963.60
2017-10-15T03:24:16.387Z,74964.51
2017-10-15T03:25:16.412Z,74959.06
2017-10-15T03:26:16.441Z,74965.77
2017-10-15T03:27:16.468Z,74967.64
2017-10-15T03:28:16.496Z,74968.23
2017-10-15T03:29:16.523Z,74965.11
2017-10-15T03:30:16.551Z,74962.77
2017-10-15T03:31:16.576Z,74962.32
2017-10-15T03:32:16.605Z,74965.98
2017-10-15T03:33:16.631Z,74965.05
2017-10-15T03:34:16.665Z,74966.17
2017-10-15T03:35:16.687Z,74967.02
2017-10-15T03:36:16.725Z,74963.10
2017-10-15T03:37:16.741Z,74969.09
2017-10-15T03:38:16.769Z,74968.11
2017-10-15T03:39:16.797Z,74969.81
2017-10-15T03:40:16.824Z,74970.06
2017-10-15T03:41:16.856Z,74963.55
2017-10-15T03:42:16.879Z,74967.37
2017-10-15T03:43:16.907Z,74968.94
2017-10-15T03:44:16.935Z,74968.43
2017-10-15T03:45:16.960Z,74967.11
2017-10-15T03:46:16.988Z,74966.34
2017-10-15T03:47:17.016Z,74968.34
2017-10-15T03:48:17.045Z,74970.81
2017-10-15T03:49:17.070Z,74975.85
2017-10-15T03:50:17.098Z,74967.43
2017-10-15T03:51:17.126Z,74968.86
2017-10-15T03:52:17.153Z,74972.02
2017-10-15T03:53:17.181Z,74968.08
2017-10-15T03:54:17.208Z,74969.90
2017-10-15T03:55:17.235Z,74969.78
2017-10-15T03:56:17.263Z,74968.71
2017-10-15T03:57:17.291Z,74969.80
2017-10-15T03:58:17.318Z,74967.35
2017-10-15T03:59:17.345Z,74968.13
2017-10-15T04:00:17.374Z,74971.31
2017-10-15T04:01:17.400Z,74969.02
2017-10-15T04:02:17.428Z,74970.38
2017-10-15T04:03:17.459Z,74968.86
2017-10-15T04:04:17.483Z,74973.02
2017-10-15T04:05:17.510Z,74972.38
2017-10-15T04:06:17.538Z,74971.59
2017-10-15T04:07:17.565Z,74972.67
2017-10-15T04:08:17.592Z,74971.73
2017-10-15T04:09:17.621Z,74969.35
2017-10-15T04:10:17.647Z,74971.62
2017-10-15T04:11:17.675Z,74973.74
2017-10-15T04:12:17.703Z,74972.42
2017-10-15T04:13:17.730Z,74968.96
2017-10-15T04:14:17.757Z,74971.09
2017-10-15T04:15:17.784Z,74971.84
2017-10-15T04:16:17.818Z,74969.75
2017-10-15T04:17:17.839Z,74971.26
2017-10-15T04:18:17.867Z,74971.50
2017-10-15T04:19:17.894Z,74972.59
2017-10-15T04:20:17.922Z,74973.18
2017-10-15T04:21:17.948Z,74971.38
2017-10-15T04:22:17.977Z,74972.98
2017-10-15T04:23:18.004Z,74969.02
2017-10-15T04:24:18.032Z,74975.00
2017-10-15T04:25:18.058Z,74973.23
2017-10-15T04:26:18.086Z,74968.88
2017-10-15T04:27:18.113Z,74969.02
2017-10-15T04:28:18.141Z,74966.54
2017-10-15T04:29:18.167Z,74968.31
2017-10-15T04:30:18.196Z,74968.64
2017-10-15T04:31:18.223Z,74970.59
2017-10-15T04:32:18.251Z,74970.12
2017-10-15T04:33:18.277Z,74972.20
2017-10-15T04:34:18.306Z,74966.98
2017-10-15T04:35:18.334Z,74971.16
2017-10-15T04:36:18.361Z,74970.16
2017-10-15T04:37:18.387Z,74974.07
2017-10-15T04:38:18.416Z,74969.56
2017-10-15T04:39:18.444Z,74969.85
2017-10-15T04:40:18.471Z,74970.40
2017-10-15T04:41:18.505Z,74970.59
2017-10-15T04:42:18.526Z,74970.23
2017-10-15T04:43:18.553Z,74970.07
2017-10-15T04:44:18.581Z,74972.80
2017-10-15T04:45:18.607Z,74971.75
2017-10-15T04:46:18.636Z,74966.73
2017-10-15T04:47:18.663Z,74968.14
2017-10-15T04:48:18.691Z,74968.30
2017-10-15T04:49:18.718Z,74970.98
2017-10-15T04:50:18.745Z,74967.13
2017-10-15T04:51:18.774Z,74969.25
2017-10-15T04:52:18.802Z,74968.59
2017-10-15T04:53:18.828Z,74969.20
2017-10-15T04:54:18.856Z,74967.95
2017-10-15T04:55:18.888Z,74967.02
2017-10-15T04:56:18.911Z,74969.09
2017-10-15T04:57:18.938Z,74970.98
2017-10-15T04:58:18.965Z,74968.44
2017-10-15T04:59:18.994Z,74972.37
2017-10-15T05:00:19.021Z,74969.59
2017-10-15T05:01:19.048Z,74970.28
2017-10-15T05:02:19.076Z,74968.44
2017-10-15T05:03:19.104Z,74965.16
2017-10-15T05:04:19.132Z,74966.89
2017-10-15T05:05:19.158Z,74968.98
2017-10-15T05:06:19.186Z,74968.38
2017-10-15T05:07:19.214Z,74967.66
2017-10-15T05:08:19.242Z,74967.66
2017-10-15T05:09:19.269Z,74969.04
2017-10-15T05:10:19.296Z,74971.46
2017-10-15T05:11:19.323Z,74970.11
2017-10-15T05:12:19.352Z,74969.45
2017-10-15T05:13:19.379Z,74967.73
2017-10-15T05:14:19.406Z,74969.37
2017-10-15T05:15:19.434Z,74969.09
2017-10-15T05:16:19.463Z,74970.52
2017-10-15T05:17:19.489Z,74971.02
2017-10-15T05:18:19.516Z,74971.02
2017-10-15T05:19:19.545Z,74970.43
2017-10-15T05:20:19.572Z,74969.78
2017-10-15T05:21:19.598Z,74971.22
2017-10-15T05:22:19.626Z,74971.67
2017-10-15T05:23:19.654Z,74971.71
2017-10-15T05:24:19.681Z,74969.49
2017-10-15T05:25:19.709Z,74968.88
2017-10-15T05:26:19.737Z,74972.27
2017-10-15T05:27:19.763Z,74970.48
2017-10-15T05:28:19.792Z,74972.47
2017-10-15T05:29:19.820Z,74972.05
2017-10-15T05:30:19.847Z,74973.83
2017-10-15T05:31:19.874Z,74975.02
2017-10-15T05:32:19.902Z,74970.55
2017-10-15T05:33:19.928Z,74970.01
2017-10-15T05:34:19.957Z,74972.56
2017-10-15T05:35:19.984Z,74972.25
2017-10-15T05:36:20.012Z,74969.94
2017-10-15T05:37:20.040Z,74974.24
2017-10-15T05:38:20.066Z,74972.88
2017-10-15T05:39:20.095Z,74975.88
2017-10-15T05:40:20.122Z,74971.21
2017-10-15T05:41:20.148Z,74969.94
2017-10-15T05:42:20.177Z,74971.19
2017-10-15T05:43:20.204Z,74970.40
2017-10-15T05:44:20.232Z,74973.74
2017-10-15T05:45:20.258Z,74970.11
2017-10-15T05:46:20.287Z,74967.31
2017-10-15T05:47:20.326Z,74973.58
2017-10-15T05:48:20.342Z,74970.52
2017-10-15T05:49:20.393Z,74973.16
2017-10-15T05:50:20.397Z,74974.59
2017-10-15T05:51:20.424Z,74975.70
2017-10-15T05:52:20.453Z,74975.32
2017-10-15T05:53:20.479Z,74977.41
2017-10-15T05:54:20.510Z,74977.16
2017-10-15T05:55:20.534Z,74977.12
2017-10-15T05:56:20.562Z,74977.05
2017-10-15T05:57:20.589Z,74976.13
2017-10-15T05:58:20.616Z,74980.68
2017-10-15T05:59:20.647Z,74978.95
2017-10-15T06:00:20.673Z,74979.20
2017-10-15T06:01:20.701Z,74977.57
2017-10-15T06:02:20.728Z,74980.24
2017-10-15T06:03:20.757Z,74977.27
2017-10-15T06:04:20.784Z,74981.16
2017-10-15T06:05:20.810Z,74977.89
2017-10-15T06:06:20.840Z,74979.60
2017-10-15T06:07:20.888Z,74985.20
2017-10-15T06:08:20.894Z,74984.70
2017-10-15T06:09:20.923Z,74986.24
2017-10-15T06:10:20.950Z,74984.95
2017-10-15T06:11:20.979Z,74986.53
2017-10-15T06:12:21.007Z,74987.84
2017-10-15T06:13:21.035Z,74985.66
2017-10-15T06:14:21.063Z,74988.31
2017-10-15T06:15:21.092Z,74988.50
2017-10-15T06:16:21.119Z,74992.77
2017-10-15T06:17:21.148Z,74989.68
2017-10-15T06:18:21.176Z,74989.23
2017-10-15T06:19:21.204Z,74988.20
2017-10-15T06:20:21.234Z,74993.15
2017-10-15T06:21:21.262Z,74993.42
2017-10-15T06:22:21.290Z,74990.42
2017-10-15T06:23:21.319Z,74993.54
2017-10-15T06:24:21.348Z,74990.77
2017-10-15T06:25:21.376Z,74991.40
2017-10-15T06:26:21.406Z,74991.24
2017-10-15T06:27:21.435Z,74996.64
2017-10-15T06:28:21.463Z,74995.91
2017-10-15T06:29:21.493Z,74995.28
2017-10-15T06:30:21.521Z,74993.04
2017-10-15T06:31:21.551Z,74997.63
2017-10-15T06:32:21.580Z,74999.01
2017-10-15T06:33:21.609Z,75001.09
2017-10-15T06:34:21.639Z,74998.54
2017-10-15T06:35:21.669Z,75002.67
2017-10-15T06:36:21.705Z,75003.80
2017-10-15T06:37:21.729Z,75004.98
2017-10-15T06:38:21.759Z,75004.39
2017-10-15T06:39:21.788Z,75005.39
2017-10-15T06:40:21.833Z,75000.76
2017-10-15T06:41:21.848Z,75003.31
2017-10-15T06:42:21.878Z,75003.48
2017-10-15T06:43:21.907Z,75004.93
2017-10-15T06:44:21.939Z,75004.21
2017-10-15T06:45:21.968Z,75007.62
2017-10-15T06:46:21.999Z,75004.48
2017-10-15T06:47:22.030Z,75005.99
2017-10-15T06:48:22.060Z,75005.51
2017-10-15T06:49:22.090Z,75008.47
2017-10-15T06:50:22.121Z,75007.09
2017-10-15T06:51:22.151Z,75009.29
2017-10-15T06:52:22.183Z,75007.30
2017-10-15T06:53:22.213Z,75010.97
2017-10-15T06:54:22.244Z,75012.87
2017-10-15T06:55:22.274Z,75010.41
2017-10-15T06:56:22.305Z,75014.52
2017-10-15T06:57:22.336Z,75016.36
2017-10-15T06:58:22.367Z,75018.34
2017-10-15T06:59:22.398Z,75013.77
2017-10-15T07:00:22.429Z,75017.09
2017-10-15T07:01:22.459Z,75018.61
2017-10-15T07:02:22.491Z,75017.03
2017-10-15T07:03:22.524Z,75020.34
2017-10-15T07:04:22.554Z,75014.08
2017-10-15T07:05:22.584Z,75017.06
2017-10-15T07:06:22.620Z,75019.27
2017-10-15T07:07:22.648Z,75018.83
2017-10-15T07:08:22.680Z,75020.84
2017-10-15T07:09:22.711Z,75020.91
2017-10-15T07:10:22.743Z,75022.81
2017-10-15T07:11:22.778Z,75020.84
2017-10-15T07:12:22.807Z,75024.59
2017-10-15T07:13:22.841Z,75022.52
2017-10-15T07:14:22.869Z,75026.20
2017-10-15T07:15:22.901Z,75028.25
2017-10-15T07:16:22.934Z,75026.74
2017-10-15T07:17:22.966Z,75025.94
2017-10-15T07:18:22.998Z,75029.38
2017-10-15T07:19:23.030Z,75027.71
2017-10-15T07:20:23.063Z,75032.29
2017-10-15T07:21:23.094Z,75031.25
2017-10-15T07:22:23.127Z,75031.10
2017-10-15T07:23:23.160Z,75032.84
2017-10-15T07:24:23.193Z,75033.66
2017-10-15T07:25:23.225Z,75034.02
2017-10-15T07:26:23.257Z,75032.58
2017-10-15T07:27:23.289Z,75036.63
2017-10-15T07:28:23.323Z,75040.20
2017-10-15T07:29:23.355Z,75037.65
2017-10-15T07:30:23.389Z,75038.04
2017-10-15T07:31:23.423Z,75040.71
2017-10-15T07:32:23.455Z,75040.55
2017-10-15T07:33:23.487Z,75040.88
2017-10-15T07:34:23.521Z,75040.38
2017-10-15T07:35:23.556Z,75042.59
2017-10-15T07:36:23.589Z,75043.78
2017-10-15T07:37:23.621Z,75044.58
2017-10-15T07:38:23.655Z,75045.41
2017-10-15T07:39:23.688Z,75044.65
2017-10-15T07:40:23.723Z,75041.82
2017-10-15T07:41:23.756Z,75044.84
2017-10-15T07:42:23.790Z,75042.88
2017-10-15T07:43:23.832Z,75044.92
2017-10-15T07:44:23.863Z,75045.23
2017-10-15T07:45:23.891Z,75048.09
2017-10-15T07:46:23.926Z,75047.09
2017-10-15T07:47:23.961Z,75047.32
2017-10-15T07:48:23.995Z,75047.38
2017-10-15T07:49:24.028Z,75045.96
2017-10-15T07:50:24.063Z,75052.52
2017-10-15T07:51:24.097Z,75053.01
2017-10-15T07:52:24.132Z,75052.41
2017-10-15T07:53:24.167Z,75054.27
2017-10-15T07:54:24.201Z,75052.83
2017-10-15T07:55:24.246Z,75051.56
2017-10-15T07:56:24.270Z,75050.68
2017-10-15T07:57:24.304Z,75055.72
2017-10-15T07:58:24.340Z,75052.20
2017-10-15T07:59:24.376Z,75053.64
2017-10-15T08:00:24.409Z,75056.99
2017-10-15T08:01:24.444Z,75055.30
2017-10-15T08:02:24.480Z,75062.91
2017-10-15T08:03:24.514Z,75058.30
2017-10-15T08:04:24.551Z,75060.77
2017-10-15T08:05:24.586Z,75061.71
2017-10-15T08:06:24.621Z,75064.18
2017-10-15T08:07:24.657Z,75061.35
2017-10-15T08:08:24.693Z,75060.96
2017-10-15T08:09:24.727Z,75062.12
2017-10-15T08:10:24.765Z,75061.82
2017-10-15T08:11:24.798Z,75060.73
2017-10-15T08:12:24.835Z,75062.59
2017-10-15T08:13:24.869Z,75062.63
2017-10-15T08:14:24.906Z,75063.73
2017-10-15T08:15:24.941Z,75062.11
2017-10-15T08:16:24.977Z,75066.58
2017-10-15T08:17:25.013Z,75066.23
2017-10-15T08:18:25.051Z,75061.42
2017-10-15T08:19:25.085Z,75064.45
2017-10-15T08:20:25.122Z,75064.94
2017-10-15T08:21:25.163Z,75063.97
2017-10-15T08:22:25.193Z,75059.88
2017-10-15T08:23:25.229Z,75062.19
2017-10-15T08:24:25.266Z,75060.77
2017-10-15T08:25:25.302Z,75065.95
2017-10-15T08:26:25.342Z,75065.20
2017-10-15T08:27:25.375Z,75062.55
2017-10-15T08:28:25.411Z,75066.66
2017-10-15T08:29:25.447Z,75069.10
2017-10-15T08:30:25.484Z,75061.68
2017-10-15T08:31:25.522Z,75066.32
2017-10-15T08:32:25.558Z,75065.41
2017-10-15T08:33:25.595Z,75065.53
2017-10-15T08:34:25.631Z,75063.26
2017-10-15T08:35:25.669Z,75066.93
2017-10-15T08:36:25.705Z,75061.16
2017-10-15T08:37:25.743Z,75063.08
2017-10-15T08:38:25.788Z,75067.06
2017-10-15T08:39:25.817Z,75063.58
2017-10-15T08:40:25.861Z,75066.24
2017-10-15T08:41:25.892Z,75068.20
2017-10-15T08:42:25.930Z,75064.38
2017-10-15T08:43:25.967Z,75064.14
2017-10-15T08:44:26.005Z,75063.91
2017-10-15T08:45:26.041Z,75064.93
2017-10-15T08:46:26.101Z,75063.70
2017-10-15T08:47:26.116Z,75067.49
2017-10-15T08:48:26.155Z,75065.17
2017-10-15T08:49:26.200Z,75067.52
2017-10-15T08:50:26.228Z,75066.28
2017-10-15T08:51:26.267Z,75069.02
2017-10-15T08:52:26.305Z,75069.17
2017-10-15T08:53:26.342Z,75073.50
2017-10-15T08:54:26.380Z,75071.74
2017-10-15T08:55:26.418Z,75072.83
2017-10-15T08:56:26.456Z,75076.45
2017-10-15T08:57:26.493Z,75072.92
2017-10-15T08:58:26.532Z,75078.30
2017-10-15T08:59:26.570Z,75078.25
2017-10-15T09:00:26.608Z,75080.52
2017-10-15T09:01:26.646Z,75080.30
2017-10-15T09:02:26.684Z,75079.16
2017-10-15T09:03:26.722Z,75080.52
2017-10-15T09:04:26.761Z,75079.34
2017-10-15T09:05:26.798Z,75078.36
2017-10-15T09:06:26.837Z,75077.20
2017-10-15T09:07:26.876Z,75081.31
2017-10-15T09:08:26.914Z,75083.57
2017-10-15T09:09:26.952Z,75083.41
2017-10-15T09:10:26.991Z,75081.14
2017-10-15T09:11:27.029Z,75074.26
2017-10-15T09:12:27.070Z,75079.59
2017-10-15T09:13:27.107Z,75079.22
2017-10-15T09:14:27.146Z,75077.47
2017-10-15T09:15:27.186Z,75079.55
2017-10-15T09:16:27.225Z,75078.94
2017-10-15T09:17:27.263Z,75079.80
2017-10-15T09:18:27.303Z,75083.53
2017-10-15T09:19:27.342Z,75082.58
2017-10-15T09:20:27.400Z,75084.34
2017-10-15T09:21:27.422Z,75084.70
2017-10-15T09:22:27.460Z,75082.63
2017-10-15T09:23:27.500Z,75083.15
2017-10-15T09:24:27.542Z,75085.45
2017-10-15T09:25:27.596Z,75082.99
2017-10-15T09:26:27.617Z,75082.03
2017-10-15T09:27:27.658Z,75080.45
2017-10-15T09:28:27.697Z,75080.28
2017-10-15T09:29:27.736Z,75081.84
2017-10-15T09:30:27.777Z,75080.47
2017-10-15T09:31:27.822Z,75079.60
2017-10-15T09:32:27.856Z,75085.11
2017-10-15T09:33:27.894Z,75078.10
2017-10-15T09:34:27.935Z,75076.34
2017-10-15T09:35:27.975Z,75079.99
2017-10-15T09:36:28.016Z,75079.25
2017-10-15T09:37:28.054Z,75078.29
2017-10-15T09:38:28.095Z,75080.08
2017-10-15T09:39:28.135Z,75080.73
2017-10-15T09:40:28.174Z,75078.82
2017-10-15T09:41:28.215Z,75083.46
2017-10-15T09:42:28.255Z,75083.71
2017-10-15T09:43:28.296Z,75086.49
2017-10-15T09:44:28.336Z,75082.68
2017-10-15T09:45:28.376Z,75085.64
2017-10-15T09:46:28.418Z,75088.01
2017-10-15T09:47:28.462Z,75085.59
2017-10-15T09:48:28.498Z,75085.17
2017-10-15T09:49:28.538Z,75088.11
2017-10-15T09:50:28.579Z,75089.22
2017-10-15T09:51:28.620Z,75088.11
2017-10-15T09:52:28.664Z,75084.98
2017-10-15T09:53:28.701Z,75081.22
2017-10-15T09:54:28.742Z,75084.01
2017-10-15T09:55:28.782Z,75080.13
2017-10-15T09:56:28.823Z,75078.31
2017-10-15T09:57:28.863Z,75081.04
2017-10-15T09:58:28.904Z,75081.73
2017-10-15T09:59:28.945Z,75078.55
2017-10-15T10:00:28.986Z,75082.17
2017-10-15T10:01:29.026Z,75077.93
2017-10-15T10:02:29.068Z,75075.89
2017-10-15T10:03:29.108Z,75077.33
2017-10-15T10:04:29.150Z,75079.07
2017-10-15T10:05:29.196Z,75078.46
2017-10-15T10:06:29.231Z,75078.30
2017-10-15T10:07:29.272Z,75073.63
2017-10-15T10:08:29.313Z,75075.32
2017-10-15T10:09:29.354Z,75073.06
2017-10-15T10:10:29.394Z,75077.51
2017-10-15T10:11:29.437Z,75077.37
2017-10-15T10:12:29.478Z,75076.13
2017-10-15T10:13:29.527Z,75077.05
2017-10-15T10:14:29.560Z,75075.73
2017-10-15T10:15:29.602Z,75073.65
2017-10-15T10:16:29.645Z,75070.41
2017-10-15T10:17:29.684Z,75075.00
2017-10-15T10:18:29.726Z,75074.20
2017-10-15T10:19:29.768Z,75072.53
2017-10-15T10:20:29.811Z,75075.83
2017-10-15T10:21:29.852Z,75077.05
2017-10-15T10:22:29.894Z,75071.41
2017-10-15T10:23:29.936Z,75071.51
2017-10-15T10:24:29.979Z,75071.29
2017-10-15T10:25:30.020Z,75073.13
2017-10-15T10:26:30.062Z,75074.56
2017-10-15T10:27:30.105Z,75069.79
2017-10-15T10:28:30.148Z,75075.10
2017-10-15T10:29:30.189Z,75076.14
2017-10-15T10:30:30.233Z,75077.36
2017-10-15T10:31:30.276Z,75076.57
2017-10-15T10:32:30.318Z,75077.21
2017-10-15T10:33:30.360Z,75075.66
2017-10-15T10:34:30.404Z,75076.63
2017-10-15T10:35:30.445Z,75076.53
2017-10-15T10:36:30.489Z,75075.49
2017-10-15T10:37:30.531Z,75075.55
2017-10-15T10:38:30.573Z,75074.77
2017-10-15T10:39:30.616Z,75071.64
2017-10-15T10:40:30.659Z,75072.14
2017-10-15T10:41:30.702Z,75070.80
2017-10-15T10:42:30.745Z,75074.54
2017-10-15T10:43:30.788Z,75073.10
2017-10-15T10:44:30.832Z,75071.80
2017-10-15T10:45:30.874Z,75074.14
2017-10-15T10:46:30.916Z,75073.94
2017-10-15T10:47:30.960Z,75075.16
2017-10-15T10:48:31.004Z,75073.17
2017-10-15T10:49:31.046Z,75077.76
2017-10-15T10:50:31.090Z,75072.11
2017-10-15T10:51:31.133Z,75070.14
2017-10-15T10:52:31.176Z,75073.29
2017-10-15T10:53:31.219Z,75072.92
2017-10-15T10:54:31.263Z,75068.65
2017-10-15T10:55:31.305Z,75072.86
2017-10-15T10:56:31.350Z,75072.48
2017-10-15T10:57:31.392Z,75066.70
2017-10-15T10:58:31.435Z,75066.11
2017-10-15T10:59:31.479Z,75064.60
2017-10-15T11:00:31.523Z,75063.34
2017-10-15T11:01:31.565Z,75063.91
2017-10-15T11:02:31.609Z,75059.37
2017-10-15T11:03:31.653Z,75062.46
2017-10-15T11:04:31.696Z,75059.35
2017-10-15T11:05:31.738Z,75061.73
2017-10-15T11:06:31.782Z,75058.88
2017-10-15T11:07:31.833Z,75057.08
2017-10-15T11:08:31.869Z,75058.75
2017-10-15T11:09:31.911Z,75057.02
2017-10-15T11:10:31.954Z,75056.52
2017-10-15T11:11:31.998Z,75054.34
2017-10-15T11:12:32.041Z,75060.30
2017-10-15T11:13:32.083Z,75057.20
2017-10-15T11:14:32.126Z,75056.16
2017-10-15T11:15:32.177Z,75056.46
2017-10-15T11:16:32.213Z,75057.61
2017-10-15T11:17:32.256Z,75055.17
2017-10-15T11:18:32.298Z,75057.38
2017-10-15T11:19:32.342Z,75056.22
2017-10-15T11:20:32.386Z,75059.01
2017-10-15T11:21:32.438Z,75056.79
2017-10-15T11:22:32.472Z,75052.06
2017-10-15T11:23:32.515Z,75053.20
2017-10-15T11:24:32.558Z,75057.50
2017-10-15T11:25:32.600Z,75054.84
2017-10-15T11:26:32.644Z,75055.45
2017-10-15T11:27:32.688Z,75054.20
2017-10-15T11:28:32.753Z,75051.72
2017-10-15T11:29:32.773Z,75054.23
2017-10-15T11:30:32.817Z,75051.89
2017-10-15T11:31:32.860Z,75056.09
2017-10-15T11:32:32.905Z,75052.23
2017-10-15T11:33:32.946Z,75047.91
2017-10-15T11:34:32.990Z,75047.92
2017-10-15T11:35:33.032Z,75050.71
2017-10-15T11:36:33.076Z,75052.17
2017-10-15T11:37:33.119Z,75050.80
2017-10-15T11:38:33.161Z,75051.80
2017-10-15T11:39:33.207Z,75054.80
2017-10-15T11:40:33.248Z,75055.02
2017-10-15T11:41:33.290Z,75052.41
2017-10-15T11:42:33.334Z,75053.38
2017-10-15T11:43:33.376Z,75051.88
2017-10-15T11:44:33.420Z,75052.49